createdAt,value
2022-11-24T00:00:12.276Z,95116.69
2022-11-24T00:02:39.055Z,95115.81
2022-11-24T00:05:06.343Z,95107.53
2022-11-24T00:07:32.932Z,95101.06
2022-11-24T00:09:59.578Z,95105.28
2022-11-24T00:12:26.143Z,95103.50
2022-11-24T00:14:52.699Z,95102.00
2022-11-24T00:17:19.242Z,95110.66
2022-11-24T00:19:45.881Z,95114.06
2022-11-24T00:22:12.439Z,95112.91
2022-11-24T00:24:39.240Z,95115.50
2022-11-24T00:27:06.121Z,95122.19
2022-11-24T00:29:32.699Z,95119.16
2022-11-24T00:31:59.279Z,95119.91
2022-11-24T00:34:26.938Z,95121.56
2022-11-24T00:36:53.447Z,95120.53
2022-11-24T00:39:20.020Z,95120.28
2022-11-24T00:41:46.599Z,95134.91
2022-11-24T00:44:13.363Z,95133.13
2022-11-24T00:46:40.108Z,95135.03
2022-11-24T00:49:06.885Z,95139.31
2022-11-24T00:51:33.534Z,95131.34
2022-11-24T00:54:01.188Z,95132.44
2022-11-24T00:56:29.177Z,95141.00
2022-11-24T00:58:56.782Z,95142.91
2022-11-24T01:01:26.744Z,95140.16
2022-11-24T01:03:57.327Z,95131.31
2022-11-24T01:06:25.889Z,95149.28
2022-11-24T01:08:52.732Z,95149.72
2022-11-24T01:11:28.742Z,95159.22
2022-11-24T01:13:57.848Z,95154.94
2022-11-24T01:16:26.013Z,95162.69
2022-11-24T01:18:52.707Z,95168.50
2022-11-24T01:21:20.267Z,95173.47
2022-11-24T01:23:47.093Z,95178.72
2022-11-24T01:26:20.287Z,95181.94
2022-11-24T01:28:47.831Z,95183.66
2022-11-24T01:31:15.508Z,95185.28
2022-11-24T01:33:42.259Z,95183.72
2022-11-24T01:36:08.861Z,95190.28
2022-11-24T01:38:35.428Z,95200.75
2022-11-24T01:41:04.923Z,95197.22
2022-11-24T01:43:32.080Z,95194.81
2022-11-24T01:46:04.903Z,95207.03
2022-11-24T01:48:38.487Z,95202.69
2022-11-24T01:51:16.540Z,95215.13
2022-11-24T01:53:49.090Z,95217.53
2022-11-24T01:56:15.811Z,95214.84
2022-11-24T01:58:45.422Z,95221.84
2022-11-24T02:01:12.236Z,95215.44
2022-11-24T02:03:44.722Z,95214.63
2022-11-24T02:06:14.012Z,95204.50
2022-11-24T02:09:00.988Z,95217.28
2022-11-24T02:11:33.329Z,95217.19
2022-11-24T02:14:00.729Z,95218.78
2022-11-24T02:16:27.629Z,95216.44
2022-11-24T02:18:54.239Z,95215.00
2022-11-24T02:21:20.853Z,95219.75
2022-11-24T02:23:59.468Z,95214.59
2022-11-24T02:26:39.623Z,95220.75
2022-11-24T02:29:06.252Z,95214.13
2022-11-24T02:31:33.712Z,95208.06
2022-11-24T02:34:00.352Z,95211.09
2022-11-24T02:36:26.990Z,95205.59
2022-11-24T02:38:53.660Z,95217.50
2022-11-24T02:41:23.298Z,95214.81
2022-11-24T02:43:54.871Z,95211.47
2022-11-24T02:46:21.368Z,95211.47
2022-11-24T02:48:48.239Z,95205.59
2022-11-24T02:51:14.806Z,95204.41
2022-11-24T02:53:41.460Z,95206.06
2022-11-24T02:56:08.542Z,95210.16
2022-11-24T02:58:35.173Z,95200.75
2022-11-24T03:01:02.798Z,95215.47
2022-11-24T03:03:29.423Z,95210.84
2022-11-24T03:05:56.059Z,95214.13
2022-11-24T03:08:22.663Z,95224.16
2022-11-24T03:10:49.408Z,95230.22
2022-11-24T03:13:16.103Z,95222.59
2022-11-24T03:15:42.748Z,95223.47
2022-11-24T03:18:09.431Z,95217.81
2022-11-24T03:20:36.198Z,95215.13
2022-11-24T03:23:03.002Z,95215.25
2022-11-24T03:25:29.589Z,95215.53
2022-11-24T03:27:58.172Z,95224.31
2022-11-24T03:30:24.986Z,95226.28
2022-11-24T03:32:52.923Z,95223.81
2022-11-24T03:35:23.140Z,95227.06
2022-11-24T03:37:49.915Z,95230.13
2022-11-24T03:40:17.902Z,95233.72
2022-11-24T03:42:44.440Z,95235.69
2022-11-24T03:45:38.155Z,95243.88
2022-11-24T03:47:57.639Z,95252.91
2022-11-24T03:50:24.283Z,95241.66
2022-11-24T03:52:50.799Z,95249.97
2022-11-24T03:55:17.359Z,95240.56
2022-11-24T03:57:43.870Z,95249.06
2022-11-24T04:00:11.823Z,95244.13
2022-11-24T04:02:38.520Z,95246.78
2022-11-24T04:05:05.912Z,95258.06
2022-11-24T04:07:32.538Z,95263.28
2022-11-24T04:09:59.396Z,95272.09
2022-11-24T04:12:44.180Z,95275.50
2022-11-24T04:15:17.166Z,95276.44
2022-11-24T04:17:45.128Z,95274.28
2022-11-24T04:20:12.710Z,95267.78
2022-11-24T04:22:39.739Z,95283.56
2022-11-24T04:25:07.404Z,95273.59
2022-11-24T04:27:35.474Z,95272.69
2022-11-24T04:30:02.734Z,95271.09
2022-11-24T04:32:29.283Z,95269.56
2022-11-24T04:34:55.862Z,95279.06
2022-11-24T04:37:22.616Z,95276.97
2022-11-24T04:39:49.169Z,95276.31
2022-11-24T04:42:15.735Z,95267.78
2022-11-24T04:44:42.331Z,95277.69
2022-11-24T04:47:15.612Z,95274.06
2022-11-24T04:49:42.216Z,95272.84
2022-11-24T04:52:08.761Z,95259.06
2022-11-24T04:54:35.759Z,95252.13
2022-11-24T04:57:02.469Z,95264.22
2022-11-24T04:59:29.172Z,95259.97
2022-11-24T05:01:55.785Z,95262.25
2022-11-24T05:04:22.501Z,95271.59
2022-11-24T05:06:49.139Z,95280.44
2022-11-24T05:09:17.072Z,95280.28
2022-11-24T05:11:43.902Z,95287.19
2022-11-24T05:14:10.531Z,95284.63
2022-11-24T05:16:37.796Z,95287.53
2022-11-24T05:19:04.535Z,95295.28
2022-11-24T05:21:31.073Z,95297.31
2022-11-24T05:23:57.899Z,95293.16
2022-11-24T05:26:24.453Z,95299.78
2022-11-24T05:28:51.008Z,95302.22
2022-11-24T05:31:17.609Z,95299.16
2022-11-24T05:33:44.189Z,95294.75
2022-11-24T05:36:33.473Z,95293.25
2022-11-24T05:39:00.454Z,95300.06
2022-11-24T05:41:27.027Z,95301.13
2022-11-24T05:43:53.675Z,95302.03
2022-11-24T05:46:20.269Z,95317.56
2022-11-24T05:48:48.286Z,95318.16
2022-11-24T05:51:14.846Z,95321.47
2022-11-24T05:53:41.477Z,95326.59
2022-11-24T05:56:08.326Z,95330.63
2022-11-24T05:58:34.886Z,95334.75
2022-11-24T06:01:05.040Z,95335.78
2022-11-24T06:03:31.584Z,95345.34
2022-11-24T06:05:58.110Z,95337.59
2022-11-24T06:08:29.658Z,95341.00
2022-11-24T06:11:20.122Z,95333.44
2022-11-24T06:13:48.713Z,95327.59
2022-11-24T06:16:16.013Z,95327.00
2022-11-24T06:18:42.751Z,95314.84
2022-11-24T06:21:11.168Z,95317.06
2022-11-24T06:23:38.618Z,95319.81
2022-11-24T06:26:05.983Z,95324.38
2022-11-24T06:28:32.694Z,95313.38
2022-11-24T06:31:04.009Z,95313.91
2022-11-24T06:33:38.189Z,95315.69
2022-11-24T06:36:07.758Z,95320.88
2022-11-24T06:38:35.721Z,95327.72
2022-11-24T06:41:07.947Z,95328.28
2022-11-24T06:43:34.990Z,95329.16
2022-11-24T06:46:02.509Z,95340.25
2022-11-24T06:48:30.022Z,95346.22
2022-11-24T06:51:05.327Z,95354.19
2022-11-24T06:53:33.335Z,95348.91
2022-11-24T06:56:01.913Z,95351.53
2022-11-24T06:58:28.588Z,95354.94
2022-11-24T07:00:55.174Z,95353.97
2022-11-24T07:03:22.617Z,95360.25
2022-11-24T07:05:49.402Z,95363.88
2022-11-24T07:08:19.029Z,95373.38
2022-11-24T07:10:49.886Z,95380.25
2022-11-24T07:13:16.509Z,95382.06
2022-11-24T07:15:43.113Z,95386.25
2022-11-24T07:18:09.719Z,95379.44
2022-11-24T07:20:39.365Z,95400.00
2022-11-24T07:23:06.779Z,95389.59
2022-11-24T07:25:33.702Z,95396.44
2022-11-24T07:28:03.406Z,95398.06
2022-11-24T07:30:29.948Z,95403.28
2022-11-24T07:33:03.235Z,95414.47
2022-11-24T07:35:30.794Z,95426.38
2022-11-24T07:37:58.444Z,95429.06
2022-11-24T07:40:26.750Z,95435.72
2022-11-24T07:42:54.238Z,95439.69
2022-11-24T07:45:21.385Z,95438.13
2022-11-24T07:47:48.018Z,95441.88
2022-11-24T07:50:14.887Z,95451.13
2022-11-24T07:52:41.441Z,95466.53
2022-11-24T07:55:08.781Z,95468.91
2022-11-24T07:57:35.459Z,95468.09
2022-11-24T08:00:02.311Z,95473.94
2022-11-24T08:02:31.446Z,95481.06
2022-11-24T08:04:57.987Z,95485.41
2022-11-24T08:07:24.779Z,95464.38
2022-11-24T08:09:52.140Z,95476.88
2022-11-24T08:12:21.612Z,95479.25
2022-11-24T08:14:50.136Z,95473.25
2022-11-24T08:17:17.664Z,95487.34
2022-11-24T08:19:44.637Z,95489.81
2022-11-24T08:22:11.283Z,95501.94
2022-11-24T08:24:38.338Z,95499.06
2022-11-24T08:27:05.243Z,95489.81
2022-11-24T08:29:32.039Z,95497.81
2022-11-24T08:31:58.626Z,95496.00
2022-11-24T08:34:26.132Z,95501.03
2022-11-24T08:36:52.671Z,95499.78
2022-11-24T08:39:20.380Z,95497.31
2022-11-24T08:41:47.051Z,95500.66
2022-11-24T08:44:18.249Z,95499.00
2022-11-24T08:46:45.276Z,95505.75
2022-11-24T08:49:13.622Z,95507.50
2022-11-24T08:51:40.502Z,95514.75
2022-11-24T08:54:08.461Z,95520.50
2022-11-24T08:56:35.015Z,95514.38
2022-11-24T08:59:02.165Z,95512.47
2022-11-24T09:01:29.013Z,95516.72
2022-11-24T09:03:58.888Z,95512.25
2022-11-24T09:06:30.301Z,95512.47
2022-11-24T09:08:58.058Z,95518.03
2022-11-24T09:11:25.970Z,95518.38
2022-11-24T09:13:53.380Z,95527.78
2022-11-24T09:16:22.613Z,95522.56
2022-11-24T09:19:04.850Z,95519.13
2022-11-24T09:21:34.131Z,95515.00
2022-11-24T09:24:00.915Z,95528.03
2022-11-24T09:26:30.015Z,95527.09
2022-11-24T09:28:58.535Z,95538.06
2022-11-24T09:31:28.245Z,95536.56
2022-11-24T09:33:55.133Z,95541.06
2022-11-24T09:36:22.077Z,95541.19
2022-11-24T09:38:48.909Z,95536.09
2022-11-24T09:41:18.389Z,95543.31
2022-11-24T09:43:57.038Z,95547.22
2022-11-24T09:46:32.050Z,95563.22
2022-11-24T09:48:58.786Z,95562.69
2022-11-24T09:51:29.339Z,95563.72
2022-11-24T09:54:09.200Z,95545.63
2022-11-24T09:56:40.602Z,95557.66
2022-11-24T09:59:23.355Z,95550.91
2022-11-24T10:01:51.384Z,95547.78
2022-11-24T10:04:20.905Z,95560.31
2022-11-24T10:07:06.470Z,95559.13
2022-11-24T10:09:57.021Z,95561.91
2022-11-24T10:12:51.616Z,95569.03
2022-11-24T10:15:45.654Z,95568.00
2022-11-24T10:18:42.977Z,95573.53
2022-11-24T10:21:18.503Z,95581.06
2022-11-24T10:24:13.482Z,95576.97
2022-11-24T10:26:46.885Z,95577.47
2022-11-24T10:29:21.384Z,95577.63
2022-11-24T10:31:53.687Z,95579.13
2022-11-24T10:34:34.459Z,95579.81
2022-11-24T10:37:11.495Z,95577.59
2022-11-24T10:39:59.680Z,95580.13
2022-11-24T10:42:29.879Z,95581.47
2022-11-24T10:45:09.489Z,95584.19
2022-11-24T10:47:36.061Z,95573.78
2022-11-24T10:50:12.718Z,95575.31
2022-11-24T10:52:42.778Z,95572.94
2022-11-24T10:55:09.889Z,95578.41
2022-11-24T10:57:39.207Z,95581.13
2022-11-24T11:00:21.018Z,95575.94
2022-11-24T11:02:49.047Z,95577.25
2022-11-24T11:05:33.642Z,95578.94
2022-11-24T11:08:30.508Z,95572.81
2022-11-24T11:11:31.351Z,95576.78
2022-11-24T11:14:04.759Z,95580.94
2022-11-24T11:16:39.471Z,95577.06
2022-11-24T11:19:51.426Z,95577.06
2022-11-24T11:22:31.890Z,95572.88
2022-11-24T11:25:12.300Z,95582.41
2022-11-24T11:27:40.587Z,95568.06
2022-11-24T11:36:11.190Z,95575.47
2022-11-24T11:38:39.618Z,95571.94
2022-11-24T11:41:11.629Z,95586.06
2022-11-24T11:43:40.953Z,95582.34
2022-11-24T11:46:13.297Z,95595.25
2022-11-24T11:48:44.824Z,95587.34
2022-11-24T11:51:41.367Z,95585.97
2022-11-24T11:54:21.259Z,95589.25
2022-11-24T11:56:55.031Z,95591.22
2022-11-24T11:59:28.219Z,95588.44
2022-11-24T12:02:38.545Z,95586.34
2022-11-24T12:05:41.521Z,95587.06
2022-11-24T12:08:21.586Z,95605.25
2022-11-24T12:10:53.085Z,95598.94
2022-11-24T12:13:38.130Z,95598.53
2022-11-24T12:16:27.791Z,95595.88
2022-11-24T12:19:32.961Z,95596.88
2022-11-24T12:22:14.678Z,95602.84
2022-11-24T12:24:53.261Z,95606.56
2022-11-24T12:27:50.835Z,95613.47
2022-11-24T12:30:18.750Z,95613.31
2022-11-24T12:33:05.539Z,95603.50
2022-11-24T12:36:03.492Z,95611.22
2022-11-24T12:38:54.633Z,95608.56
2022-11-24T12:41:45.137Z,95609.50
2022-11-24T12:44:30.747Z,95609.03
2022-11-24T12:47:10.025Z,95601.53
2022-11-24T12:50:03.819Z,95618.88
2022-11-24T12:52:38.659Z,95612.47
2022-11-24T12:55:12.627Z,95611.34
2022-11-24T12:58:10.621Z,95617.63
2022-11-24T13:00:48.248Z,95617.53
2022-11-24T13:03:30.559Z,95629.78
2022-11-24T13:06:02.828Z,95622.44
2022-11-24T13:08:30.692Z,95624.56
2022-11-24T13:11:23.079Z,95628.38
2022-11-24T13:14:13.960Z,95634.56
2022-11-24T13:17:13.440Z,95638.56
2022-11-24T13:19:37.637Z,95638.22
2022-11-24T13:22:07.238Z,95636.69
2022-11-24T13:24:39.690Z,95633.38
2022-11-24T13:27:15.550Z,95650.91
2022-11-24T13:29:46.894Z,95649.97
2022-11-24T13:32:14.491Z,95652.94
2022-11-24T13:34:41.339Z,95643.94
2022-11-24T13:37:33.877Z,95642.75
2022-11-24T13:40:31.232Z,95635.94
2022-11-24T13:42:57.814Z,95638.59
2022-11-24T13:45:39.875Z,95641.81
2022-11-24T13:48:18.990Z,95644.47
2022-11-24T13:50:54.671Z,95640.09
2022-11-24T13:53:38.579Z,95641.69
2022-11-24T13:56:08.060Z,95638.28
2022-11-24T13:58:42.831Z,95639.56
2022-11-24T14:01:36.107Z,95631.41
2022-11-24T14:04:35.269Z,95632.31
2022-11-24T14:07:09.554Z,95634.91
2022-11-24T14:09:43.106Z,95638.28
2022-11-24T14:12:17.748Z,95644.03
2022-11-24T14:14:46.551Z,95639.97
2022-11-24T14:17:13.078Z,95636.25
2022-11-24T14:19:40.497Z,95639.41
2022-11-24T14:22:19.297Z,95637.06
2022-11-24T14:24:57.726Z,95646.16
2022-11-24T14:27:37.212Z,95640.31
2022-11-24T14:30:17.559Z,95637.47
2022-11-24T14:33:00.530Z,95642.41
2022-11-24T14:35:35.853Z,95645.47
2022-11-24T14:38:05.247Z,95635.75
2022-11-24T14:40:39.280Z,95637.97
2022-11-24T14:43:18.438Z,95629.00
2022-11-24T14:45:56.016Z,95636.53
2022-11-24T14:48:36.862Z,95630.22
2022-11-24T14:51:16.053Z,95629.16
2022-11-24T14:53:48.938Z,95629.72
2022-11-24T14:56:26.817Z,95641.66
2022-11-24T14:58:55.083Z,95638.53
2022-11-24T15:01:27.563Z,95637.75
2022-11-24T15:04:22.069Z,95640.63
2022-11-24T15:07:27.017Z,95649.97
2022-11-24T15:09:58.053Z,95653.84
2022-11-24T15:12:33.823Z,95660.56
2022-11-24T15:15:06.344Z,95663.00
2022-11-24T15:17:33.057Z,95655.22
2022-11-24T15:20:16.999Z,95651.72
2022-11-24T15:22:46.612Z,95661.22
2022-11-24T15:25:33.796Z,95654.63
2022-11-24T15:28:01.115Z,95655.81
2022-11-24T15:30:35.715Z,95660.78
2022-11-24T15:33:02.834Z,95653.31
2022-11-24T15:35:31.571Z,95657.53
2022-11-24T15:37:58.497Z,95657.00
2022-11-24T15:40:25.072Z,95651.38
2022-11-24T15:42:54.288Z,95657.69
2022-11-24T15:45:23.076Z,95665.66
2022-11-24T15:47:49.746Z,95659.59
2022-11-24T15:50:17.024Z,95652.16
2022-11-24T15:52:44.617Z,95658.22
2022-11-24T15:55:20.331Z,95660.09
2022-11-24T15:57:47.539Z,95664.13
2022-11-24T16:00:16.703Z,95671.13
2022-11-24T16:02:43.415Z,95672.31
2022-11-24T16:05:11.352Z,95664.84
2022-11-24T16:07:38.033Z,95666.94
2022-11-24T16:10:07.574Z,95669.00
2022-11-24T16:12:34.179Z,95666.47
2022-11-24T16:15:00.709Z,95663.66
2022-11-24T16:17:27.299Z,95662.13
2022-11-24T16:20:00.113Z,95653.50
2022-11-24T16:22:27.571Z,95654.72
2022-11-24T16:24:54.104Z,95652.25
2022-11-24T16:27:20.761Z,95663.44
2022-11-24T16:29:47.356Z,95656.78
2022-11-24T16:32:13.896Z,95666.50
2022-11-24T16:34:40.475Z,95668.47
2022-11-24T16:37:07.038Z,95667.16
2022-11-24T16:39:33.578Z,95678.19
2022-11-24T16:42:00.155Z,95678.22
2022-11-24T16:44:26.682Z,95668.28
2022-11-24T16:46:53.243Z,95657.59
2022-11-24T16:49:19.845Z,95667.50
2022-11-24T16:51:46.406Z,95671.97
2022-11-24T16:54:12.946Z,95658.47
2022-11-24T16:56:39.621Z,95657.53
2022-11-24T16:59:06.252Z,95661.44
2022-11-24T17:01:33.010Z,95654.31
2022-11-24T17:04:00.293Z,95654.28
2022-11-24T17:06:27.407Z,95667.59
2022-11-24T17:08:55.452Z,95655.97
2022-11-24T17:11:24.273Z,95664.25
2022-11-24T17:13:51.230Z,95659.28
2022-11-24T17:16:20.461Z,95665.06
2022-11-24T17:18:47.488Z,95656.47
2022-11-24T17:21:17.141Z,95663.09
2022-11-24T17:23:43.807Z,95659.81
2022-11-24T17:26:13.035Z,95657.97
2022-11-24T17:28:40.108Z,95657.97
2022-11-24T17:31:07.593Z,95667.72
2022-11-24T17:33:35.146Z,95655.50
2022-11-24T17:36:06.423Z,95651.38
2022-11-24T17:38:33.172Z,95647.06
2022-11-24T17:40:59.727Z,95655.81
2022-11-24T17:43:27.460Z,95652.94
2022-11-24T17:45:59.062Z,95657.03
2022-11-24T17:48:25.743Z,95659.63
2022-11-24T17:51:10.667Z,95661.00
2022-11-24T17:53:37.668Z,95660.31
2022-11-24T17:56:05.542Z,95671.69
2022-11-24T17:58:37.171Z,95666.31
2022-11-24T18:01:06.839Z,95667.38
2022-11-24T18:03:33.739Z,95667.63
2022-11-24T18:06:11.388Z,95666.06
2022-11-24T18:08:39.773Z,95665.88
2022-11-24T18:11:19.931Z,95661.63
2022-11-24T18:14:03.116Z,95666.91
2022-11-24T18:16:34.292Z,95665.31
2022-11-24T18:19:11.346Z,95675.03
2022-11-24T18:21:40.303Z,95678.34
2022-11-24T18:24:08.774Z,95679.41
2022-11-24T18:26:35.405Z,95671.28
2022-11-24T18:29:01.954Z,95675.72
2022-11-24T18:31:29.460Z,95666.44
2022-11-24T18:33:56.643Z,95666.78
2022-11-24T18:36:30.058Z,95660.91
2022-11-24T18:39:00.955Z,95661.94
2022-11-24T18:41:27.618Z,95664.22
2022-11-24T18:43:54.296Z,95657.50
2022-11-24T18:46:20.943Z,95661.31
2022-11-24T18:48:47.691Z,95666.53
2022-11-24T18:51:14.456Z,95653.97
2022-11-24T18:53:42.686Z,95655.66
2022-11-24T18:56:13.591Z,95649.00
2022-11-24T18:58:40.245Z,95648.94
2022-11-24T19:01:08.922Z,95646.75
2022-11-24T19:03:48.749Z,95658.13
2022-11-24T19:06:28.545Z,95664.91
2022-11-24T19:08:55.775Z,95667.28
2022-11-24T19:11:25.075Z,95663.56
2022-11-24T19:13:51.697Z,95659.97
2022-11-24T19:16:20.142Z,95658.38
2022-11-24T19:18:53.680Z,95650.69
2022-11-24T19:21:21.900Z,95657.53
2022-11-24T19:23:48.951Z,95646.72
2022-11-24T19:26:15.540Z,95660.31
2022-11-24T19:28:42.081Z,95655.09
2022-11-24T19:31:12.597Z,95666.34
2022-11-24T19:33:39.953Z,95661.69
2022-11-24T19:36:16.058Z,95660.94
2022-11-24T19:38:43.532Z,95659.47
2022-11-24T19:41:12.414Z,95664.69
2022-11-24T19:43:40.045Z,95667.69
2022-11-24T19:46:12.671Z,95671.47
2022-11-24T19:48:44.778Z,95672.94
2022-11-24T19:51:14.396Z,95677.38
2022-11-24T19:53:41.654Z,95671.41
2022-11-24T19:56:10.976Z,95671.97
2022-11-24T19:58:38.305Z,95657.06
2022-11-24T20:01:06.993Z,95655.38
2022-11-24T20:03:34.214Z,95656.00
2022-11-24T20:06:00.814Z,95656.16
2022-11-24T20:08:35.282Z,95653.41
2022-11-24T20:11:12.533Z,95647.38
2022-11-24T20:13:40.898Z,95645.72
2022-11-24T20:16:11.415Z,95646.91
2022-11-24T20:18:42.124Z,95652.72
2022-11-24T20:21:14.118Z,95647.47
2022-11-24T20:23:41.363Z,95645.84
2022-11-24T20:26:11.518Z,95647.66
2022-11-24T20:28:38.354Z,95642.59
2022-11-24T20:31:11.005Z,95642.75
2022-11-24T20:33:38.222Z,95650.19
2022-11-24T20:36:09.988Z,95649.50
2022-11-24T20:38:37.826Z,95642.88
2022-11-24T20:41:09.256Z,95642.69
2022-11-24T20:43:36.947Z,95638.56
2022-11-24T20:46:15.434Z,95645.38
2022-11-24T20:48:42.481Z,95654.34
2022-11-24T20:51:12.546Z,95647.28
2022-11-24T20:53:39.542Z,95648.13
2022-11-24T20:56:10.029Z,95640.19
2022-11-24T20:58:37.589Z,95642.69
2022-11-24T21:01:10.887Z,95639.31
2022-11-24T21:03:42.761Z,95637.56
2022-11-24T21:06:12.482Z,95633.09
2022-11-24T21:08:41.726Z,95628.16
2022-11-24T21:11:11.840Z,95619.69
2022-11-24T21:13:40.109Z,95631.41
2022-11-24T21:16:15.713Z,95638.44
2022-11-24T21:18:43.713Z,95638.59
2022-11-24T21:21:10.820Z,95638.69
2022-11-24T21:23:37.546Z,95642.78
2022-11-24T21:26:09.067Z,95638.53
2022-11-24T21:28:38.747Z,95648.06
2022-11-24T21:31:07.335Z,95649.69
2022-11-24T21:33:34.425Z,95651.56
2022-11-24T21:36:02.607Z,95648.81
2022-11-24T21:38:29.584Z,95654.09
2022-11-24T21:41:00.965Z,95649.78
2022-11-24T21:43:29.590Z,95638.66
2022-11-24T21:46:04.102Z,95644.66
2022-11-24T21:48:31.840Z,95638.75
2022-11-24T21:51:00.108Z,95637.28
2022-11-24T21:53:29.551Z,95635.31
2022-11-24T21:56:00.639Z,95633.53
2022-11-24T21:58:28.345Z,95631.72
2022-11-24T22:01:00.522Z,95635.94
2022-11-24T22:03:27.203Z,95636.06
2022-11-24T22:05:54.681Z,95638.53
2022-11-24T22:08:22.002Z,95640.16
2022-11-24T22:10:48.566Z,95634.28
2022-11-24T22:13:15.365Z,95630.06
2022-11-24T22:15:41.979Z,95638.41
2022-11-24T22:18:08.837Z,95633.19
2022-11-24T22:20:35.520Z,95631.78
2022-11-24T22:23:02.172Z,95632.44
2022-11-24T22:25:28.766Z,95626.53
2022-11-24T22:27:55.308Z,95633.38
2022-11-24T22:30:22.178Z,95631.88
2022-11-24T22:32:48.730Z,95634.44
2022-11-24T22:35:15.323Z,95625.94
2022-11-24T22:37:41.876Z,95634.41
2022-11-24T22:40:08.894Z,95633.44
2022-11-24T22:42:35.430Z,95633.72
2022-11-24T22:45:01.970Z,95638.00
2022-11-24T22:47:28.539Z,95644.97
2022-11-24T22:49:55.151Z,95656.22
2022-11-24T22:52:21.698Z,95640.53
2022-11-24T22:54:48.333Z,95642.88
2022-11-24T22:57:14.851Z,95642.00
2022-11-24T22:59:41.476Z,95636.03
2022-11-24T23:02:08.086Z,95641.66
2022-11-24T23:04:34.822Z,95642.38
2022-11-24T23:07:01.655Z,95645.28
2022-11-24T23:09:29.188Z,95642.97
2022-11-24T23:11:55.835Z,95639.47
2022-11-24T23:14:22.426Z,95642.16
2022-11-24T23:16:49.151Z,95647.31
2022-11-24T23:19:15.870Z,95648.28
2022-11-24T23:21:42.458Z,95649.03
2022-11-24T23:24:10.213Z,95649.13
2022-11-24T23:26:40.935Z,95644.88
2022-11-24T23:29:08.412Z,95661.19
2022-11-24T23:31:35.551Z,95651.78
2022-11-24T23:34:03.498Z,95659.41
2022-11-24T23:36:31.662Z,95660.44
2022-11-24T23:39:16.502Z,95660.31
2022-11-24T23:41:43.106Z,95658.53
2022-11-24T23:44:09.699Z,95660.91
2022-11-24T23:46:36.387Z,95658.31
2022-11-24T23:49:03.158Z,95661.66
2022-11-24T23:51:31.919Z,95664.91
2022-11-24T23:53:59.934Z,95657.09
2022-11-24T23:56:32.187Z,95652.78
2022-11-24T23:58:59.471Z,95649.78
